This is the latest recevied weather packets stored in our database for station/object EB1BWO-11. If no packets are shown the sender has not sent any weather packets the latest 10 day(s).
| Time | Temp. | Humidity | Pressure | Rain* | Wind** | Luminosity | Snow |
|---|---|---|---|---|---|---|---|
| 1778020908 | 11.11° C | 78% | 1018.3 hPa | - | - | - | - |
| 1778020008 | 11.11° C | 78% | 1018.3 hPa | - | - | - | - |
| 1778019108 | 10.56° C | 78% | 1018.4 hPa | - | - | - | - |
| 1778018207 | 11.11° C | 77% | 1018.4 hPa | - | - | - | - |
| 1778017307 | 11.11° C | 78% | 1018.4 hPa | - | - | - | - |
| 1778016407 | 11.67° C | 78% | 1018.5 hPa | - | - | - | - |
| 1778015507 | 12.22° C | 79% | 1018.4 hPa | - | - | - | - |
| 1778014607 | 12.22° C | 78% | 1018.4 hPa | - | - | - | - |
| 1778013707 | 12.78° C | 78% | 1018.5 hPa | - | - | - | - |
| 1778012807 | 12.78° C | 79% | 1018.3 hPa | - | - | - | - |
| 1778011006 | 12.78° C | 78% | 1018 hPa | - | - | - | - |
| 1778004705 | 15.56° C | 71% | 1017.2 hPa | - | - | - | - |
| 1778003805 | 16.11° C | 70% | 1017.2 hPa | - | - | - | - |
| 1778002905 | 16.67° C | 70% | 1017.3 hPa | - | - | - | - |
| 1778002005 | 17.22° C | 68% | 1017.4 hPa | - | - | - | - |
| 1778001105 | 17.78° C | 67% | 1017.4 hPa | - | - | - | - |
| 1778000205 | 17.78° C | 66% | 1017.3 hPa | - | - | - | - |
| 1777999305 | 18.33° C | 65% | 1017.4 hPa | - | - | - | - |
| 1777998405 | 18.33° C | 65% | 1017.3 hPa | - | - | - | - |
| 1777997504 | 18.89° C | 63% | 1017.2 hPa | - | - | - | - |
| 1777996604 | 19.44° C | 63% | 1017.2 hPa | - | - | - | - |
| 1777995704 | 19.44° C | 65% | 1017.1 hPa | - | - | - | - |
| 1777994804 | 20° C | 57% | 1017.2 hPa | - | - | - | - |
| 1777993904 | 19.44° C | 66% | 1017.2 hPa | - | - | - | - |
| 1777993004 | 19.44° C | 65% | 1017.2 hPa | - | - | - | - |
* Rain since midnight (hover to see other rain measurements)
** Current wind speed in m/s (hover to see current wind gust speed)